Maike D — V2FO4 — position and weather

sailwx.info

Track history (hours):
 
Tides and Currents Weather Stations Pressure Air Temp Water Temp Dewpoint Dewpoint Depression Visibility Wind Speed Wind Dir Waves Ship Positions

Maike D

Last reported at 2015-Mar-25 09:33 UTC. Time now 2015-Mar-29 10:43 UTC.
Position N 50°36' E 000°25'.

Length 133 m; draft 6.2 m.

Type: Ship (hazmat cat A). MMSI: 305739000.

Date/timePositionNaut miles runAvg speedWind from/ knotsBaromVisibWave heightAir tempDewpointWater temp
2015-Mar-25 09:33N 50°36' E 000°25'1716.9
2015-Mar-25 08:33N 50°44' E 000°48'1817.6
2015-Mar-25 07:32N 50°55' E 001°11'1616.8
2015-Mar-25 06:34N 51°05' E 001°31'1514.8
2015-Mar-25 05:33N 51°16' E 001°48'1313.0
2015-Mar-25 04:33N 51°24' E 002°04'1414.2
2015-Mar-25 03:33N 51°22' E 002°26'1413.7
2015-Mar-25 02:34N 51°22' E 002°48'1714.9
2015-Mar-25 01:24N 51°25' E 003°15'1315.1
2015-Mar-25 00:33N 51°26' E 003°36'1211.6
2015-Mar-24 23:33N 51°21' E 003°52'1312.8
2015-Mar-24 22:34N 51°24' E 004°12'8 8.2
2015-Mar-24 21:34N 51°16' E 004°17'0 0.1
2015-Mar-24 20:34N 51°16' E 004°17'2 1.6
2015-Mar-24 19:33N 51°15' E 004°14'0 0.0
2015-Mar-24 18:25N 51°15' E 004°14'0 0.0
2015-Mar-24 17:31N 51°15' E 004°14'0 0.0
2015-Mar-24 16:28N 51°15' E 004°14'0 0.0
2015-Mar-24 15:22N 51°15' E 004°14'0 0.0
2015-Mar-24 14:28N 51°15' E 004°14'0 0.0
2015-Mar-24 13:28N 51°15' E 004°14'0 0.0
2015-Mar-24 12:25N 51°15' E 004°14'0 0.0
2015-Mar-24 11:28N 51°15' E 004°14'0 0.0
2015-Mar-24 10:34N 51°15' E 004°14'0 0.0
2015-Mar-24 09:21N 51°15' E 004°14'0 0.0
2015-Mar-24 08:33N 51°15' E 004°14'0 0.0
2015-Mar-24 07:33N 51°15' E 004°14'0 0.0
2015-Mar-24 06:24N 51°15' E 004°14'0 0.0
2015-Mar-24 05:30N 51°15' E 004°14'0 0.0
2015-Mar-24 04:33N 51°15' E 004°14'0 0.0
2015-Mar-24 03:33N 51°15' E 004°14'0 0.0
2015-Mar-24 02:33N 51°15' E 004°14'0 0.0
2015-Mar-24 01:30N 51°15' E 004°14'0 0.0
2015-Mar-24 00:33N 51°15' E 004°14'0 0.0
2015-Mar-23 23:27N 51°15' E 004°14'0 0.0
2015-Mar-23 22:30N 51°15' E 004°14'0 0.0
2015-Mar-23 21:27N 51°15' E 004°14'0 0.0
2015-Mar-23 20:24N 51°15' E 004°14'0 0.0
2015-Mar-23 19:33N 51°15' E 004°14'0 0.0
2015-Mar-23 18:27N 51°15' E 004°14'0 0.0
2015-Mar-23 17:33N 51°15' E 004°14'0 0.0
2015-Mar-23 16:33N 51°15' E 004°14'0 0.0
2015-Mar-23 15:33N 51°15' E 004°14'0 0.0
2015-Mar-23 14:30N 51°15' E 004°14'0 0.0
2015-Mar-23 13:33N 51°15' E 004°14'0 0.0
2015-Mar-23 12:33N 51°15' E 004°14'0 0.0
2015-Mar-23 11:30N 51°15' E 004°14'0 0.0
2015-Mar-23 10:33N 51°15' E 004°14'0 0.0
2015-Mar-23 09:33N 51°15' E 004°14'0 0.0
2015-Mar-23 08:33N 51°15' E 004°14'0 0.0
2015-Mar-23 07:33N 51°15' E 004°14'0 0.0
2015-Mar-23 06:33N 51°15' E 004°14'0 0.0
2015-Mar-23 05:33N 51°15' E 004°14'0 0.0
2015-Mar-23 04:27N 51°15' E 004°14'0 0.0
2015-Mar-23 03:27N 51°15' E 004°14'0 0.0
2015-Mar-23 02:24N 51°15' E 004°14'0 0.0
2015-Mar-23 01:33N 51°15' E 004°14'1 1.2
2015-Mar-23 00:33N 51°16' E 004°16'2 1.9
2015-Mar-22 23:33N 51°16' E 004°19'9 9.4
2015-Mar-22 22:34N 51°22' E 004°07'1010.3
2015-Mar-22 21:34N 51°21' E 003°51'1211.8
2015-Mar-22 20:33N 51°25' E 003°33'1913.7
2015-Mar-22 19:12N 51°24' E 003°03'1015.5
2015-Mar-22 18:33N 51°22' E 002°48'24 9.9
2015-Mar-22 16:06N 51°15' E 002°10'713.3
2015-Mar-22 15:33N 51°12' E 001°60'1514.1
2015-Mar-22 14:29N 51°03' E 001°40'  
2015-Mar-20 04:23N 43°22' W 001°57'44310.5
2015-Mar-18 10:10N 50°35' E 000°18'915.2
2015-Mar-18 09:33N 50°37' E 000°33'1414.5
2015-Mar-18 08:33N 50°45' E 000°52'1514.3
2015-Mar-18 07:30N 50°55' E 001°10'1415.4
2015-Mar-18 06:33N 51°04' E 001°27'1817.9
2015-Mar-18 05:34N 51°17' E 001°48'1413.7
2015-Mar-18 04:33N 51°22' E 002°08'1615.5
2015-Mar-18 03:33N 51°23' E 002°33'1515.3
2015-Mar-18 02:33N 51°23' E 002°57'1716.6
2015-Mar-18 01:33N 51°25' E 003°24'1312.7
2015-Mar-18 00:33N 51°23' E 003°44'1211.6
2015-Mar-17 23:34N 51°24' E 004°02'1010.3
2015-Mar-17 22:34N 51°19' E 004°16'3 3.1
2015-Mar-17 21:33N 51°16' E 004°16'2 1.7
2015-Mar-17 20:33N 51°15' E 004°14'0 0.0
2015-Mar-17 19:25N 51°15' E 004°14'0 0.0
2015-Mar-17 18:31N 51°15' E 004°14'0 0.0
2015-Mar-17 17:31N 51°15' E 004°14'0 0.0
2015-Mar-17 16:31N 51°15' E 004°14'0 0.0
2015-Mar-17 15:28N 51°15' E 004°14'0 0.0
2015-Mar-17 14:31N 51°15' E 004°14'0 0.0
2015-Mar-17 13:31N 51°15' E 004°14'0 0.0
2015-Mar-17 12:31N 51°15' E 004°14'0 0.0
2015-Mar-17 11:31N 51°15' E 004°14'0 0.0
2015-Mar-17 10:28N 51°15' E 004°14'0 0.0
2015-Mar-17 09:31N 51°15' E 004°14'0 0.0
2015-Mar-17 08:31N 51°15' E 004°14'0 0.0
2015-Mar-17 07:25N 51°15' E 004°14'0 0.0
2015-Mar-17 06:31N 51°15' E 004°14'0 0.0
2015-Mar-17 05:28N 51°15' E 004°14'0 0.0
2015-Mar-17 04:28N 51°15' E 004°14'0 0.0
2015-Mar-17 03:31N 51°15' E 004°14'0 0.0
2015-Mar-17 02:31N 51°15' E 004°14'0 0.0
2015-Mar-17 01:31N 51°15' E 004°14'0 0.0
2015-Mar-17 00:31N 51°15' E 004°14'0 0.0
2015-Mar-16 23:31N 51°15' E 004°14'0 0.0
2015-Mar-16 22:31N 51°15' E 004°14'0 0.0
2015-Mar-16 21:31N 51°15' E 004°14'0 0.0
2015-Mar-16 20:31N 51°15' E 004°14'0 0.0
2015-Mar-16 19:31N 51°15' E 004°14'0 0.0
2015-Mar-16 18:31N 51°15' E 004°14'0 0.0
2015-Mar-16 17:31N 51°15' E 004°14'0 0.0
2015-Mar-16 16:31N 51°15' E 004°14'0 0.0
2015-Mar-16 15:31N 51°15' E 004°14'0 0.0
2015-Mar-16 14:28N 51°15' E 004°14'0 0.0
2015-Mar-16 13:28N 51°15' E 004°14'0 0.0
2015-Mar-16 12:25N 51°15' E 004°14'0 0.0
2015-Mar-16 11:33N 51°15' E 004°14'0 0.0
2015-Mar-16 10:33N 51°15' E 004°14'0 0.0
2015-Mar-16 09:33N 51°15' E 004°14'0 0.4
2015-Mar-16 08:33N 51°16' E 004°14'2 1.7
2015-Mar-16 07:33N 51°16' E 004°17'4 3.6
2015-Mar-16 06:33N 51°19' E 004°16'10 9.6
2015-Mar-16 05:33N 51°23' E 004°02'9 9.2
2015-Mar-16 04:34N 51°21' E 003°48'1010.3
2015-Mar-16 03:33N 51°25' E 003°33'1110.6
2015-Mar-16 02:28N 51°25' E 003°15'1010.6
2015-Mar-16 01:33N 51°23' E 002°59'1110.4
2015-Mar-16 00:29N 51°22' E 002°41'3 3.7
2015-Mar-15 23:33N 51°22' E 002°36'7 6.8
2015-Mar-15 22:33N 51°21' E 002°25'10 9.1
2015-Mar-15 21:30N 51°15' E 002°12'1212.7
2015-Mar-15 20:33N 51°10' E 001°55'  
Track history (hours):
 
Tides and Currents Weather Stations Pressure Air Temp Water Temp Dewpoint Dewpoint Depression Visibility Wind Speed Wind Dir Waves Ship Positions

Maike D

Last reported at 2015-Mar-25 09:33 UTC. Time now 2015-Mar-29 10:43 UTC.
Position N 50°36' E 000°25'.

Length 133 m; draft 6.2 m.

Type: Ship (hazmat cat A). MMSI: 305739000.

Date/timePositionNaut miles runAvg speedWind from/ knotsBaromVisibWave heightAir tempDewpointWater temp
2015-Mar-25 09:33N 50°36' E 000°25'1716.9
2015-Mar-25 08:33N 50°44' E 000°48'1817.6
2015-Mar-25 07:32N 50°55' E 001°11'1616.8
2015-Mar-25 06:34N 51°05' E 001°31'1514.8
2015-Mar-25 05:33N 51°16' E 001°48'1313.0
2015-Mar-25 04:33N 51°24' E 002°04'1414.2
2015-Mar-25 03:33N 51°22' E 002°26'1413.7
2015-Mar-25 02:34N 51°22' E 002°48'1714.9
2015-Mar-25 01:24N 51°25' E 003°15'1315.1
2015-Mar-25 00:33N 51°26' E 003°36'1211.6
2015-Mar-24 23:33N 51°21' E 003°52'1312.8
2015-Mar-24 22:34N 51°24' E 004°12'8 8.2
2015-Mar-24 21:34N 51°16' E 004°17'0 0.1
2015-Mar-24 20:34N 51°16' E 004°17'2 1.6
2015-Mar-24 19:33N 51°15' E 004°14'0 0.0
2015-Mar-24 18:25N 51°15' E 004°14'0 0.0
2015-Mar-24 17:31N 51°15' E 004°14'0 0.0
2015-Mar-24 16:28N 51°15' E 004°14'0 0.0
2015-Mar-24 15:22N 51°15' E 004°14'0 0.0
2015-Mar-24 14:28N 51°15' E 004°14'0 0.0
2015-Mar-24 13:28N 51°15' E 004°14'0 0.0
2015-Mar-24 12:25N 51°15' E 004°14'0 0.0
2015-Mar-24 11:28N 51°15' E 004°14'0 0.0
2015-Mar-24 10:34N 51°15' E 004°14'0 0.0
2015-Mar-24 09:21N 51°15' E 004°14'0 0.0
2015-Mar-24 08:33N 51°15' E 004°14'0 0.0
2015-Mar-24 07:33N 51°15' E 004°14'0 0.0
2015-Mar-24 06:24N 51°15' E 004°14'0 0.0
2015-Mar-24 05:30N 51°15' E 004°14'0 0.0
2015-Mar-24 04:33N 51°15' E 004°14'0 0.0
2015-Mar-24 03:33N 51°15' E 004°14'0 0.0
2015-Mar-24 02:33N 51°15' E 004°14'0 0.0
2015-Mar-24 01:30N 51°15' E 004°14'0 0.0
2015-Mar-24 00:33N 51°15' E 004°14'0 0.0
2015-Mar-23 23:27N 51°15' E 004°14'0 0.0
2015-Mar-23 22:30N 51°15' E 004°14'0 0.0
2015-Mar-23 21:27N 51°15' E 004°14'0 0.0
2015-Mar-23 20:24N 51°15' E 004°14'0 0.0
2015-Mar-23 19:33N 51°15' E 004°14'0 0.0
2015-Mar-23 18:27N 51°15' E 004°14'0 0.0
2015-Mar-23 17:33N 51°15' E 004°14'0 0.0
2015-Mar-23 16:33N 51°15' E 004°14'0 0.0
2015-Mar-23 15:33N 51°15' E 004°14'0 0.0
2015-Mar-23 14:30N 51°15' E 004°14'0 0.0
2015-Mar-23 13:33N 51°15' E 004°14'0 0.0
2015-Mar-23 12:33N 51°15' E 004°14'0 0.0
2015-Mar-23 11:30N 51°15' E 004°14'0 0.0
2015-Mar-23 10:33N 51°15' E 004°14'0 0.0
2015-Mar-23 09:33N 51°15' E 004°14'0 0.0
2015-Mar-23 08:33N 51°15' E 004°14'0 0.0
2015-Mar-23 07:33N 51°15' E 004°14'0 0.0
2015-Mar-23 06:33N 51°15' E 004°14'0 0.0
2015-Mar-23 05:33N 51°15' E 004°14'0 0.0
2015-Mar-23 04:27N 51°15' E 004°14'0 0.0
2015-Mar-23 03:27N 51°15' E 004°14'0 0.0
2015-Mar-23 02:24N 51°15' E 004°14'0 0.0
2015-Mar-23 01:33N 51°15' E 004°14'1 1.2
2015-Mar-23 00:33N 51°16' E 004°16'2 1.9
2015-Mar-22 23:33N 51°16' E 004°19'9 9.4
2015-Mar-22 22:34N 51°22' E 004°07'1010.3
2015-Mar-22 21:34N 51°21' E 003°51'1211.8
2015-Mar-22 20:33N 51°25' E 003°33'1913.7
2015-Mar-22 19:12N 51°24' E 003°03'1015.5
2015-Mar-22 18:33N 51°22' E 002°48'24 9.9
2015-Mar-22 16:06N 51°15' E 002°10'713.3
2015-Mar-22 15:33N 51°12' E 001°60'1514.1
2015-Mar-22 14:29N 51°03' E 001°40'  
2015-Mar-20 04:23N 43°22' W 001°57'44310.5
2015-Mar-18 10:10N 50°35' E 000°18'915.2
2015-Mar-18 09:33N 50°37' E 000°33'1414.5
2015-Mar-18 08:33N 50°45' E 000°52'1514.3
2015-Mar-18 07:30N 50°55' E 001°10'1415.4
2015-Mar-18 06:33N 51°04' E 001°27'1817.9
2015-Mar-18 05:34N 51°17' E 001°48'1413.7
2015-Mar-18 04:33N 51°22' E 002°08'1615.5
2015-Mar-18 03:33N 51°23' E 002°33'1515.3
2015-Mar-18 02:33N 51°23' E 002°57'1716.6
2015-Mar-18 01:33N 51°25' E 003°24'1312.7
2015-Mar-18 00:33N 51°23' E 003°44'1211.6
2015-Mar-17 23:34N 51°24' E 004°02'1010.3
2015-Mar-17 22:34N 51°19' E 004°16'3 3.1
2015-Mar-17 21:33N 51°16' E 004°16'2 1.7
2015-Mar-17 20:33N 51°15' E 004°14'0 0.0
2015-Mar-17 19:25N 51°15' E 004°14'0 0.0
2015-Mar-17 18:31N 51°15' E 004°14'0 0.0
2015-Mar-17 17:31N 51°15' E 004°14'0 0.0
2015-Mar-17 16:31N 51°15' E 004°14'0 0.0
2015-Mar-17 15:28N 51°15' E 004°14'0 0.0
2015-Mar-17 14:31N 51°15' E 004°14'0 0.0
2015-Mar-17 13:31N 51°15' E 004°14'0 0.0
2015-Mar-17 12:31N 51°15' E 004°14'0 0.0
2015-Mar-17 11:31N 51°15' E 004°14'0 0.0
2015-Mar-17 10:28N 51°15' E 004°14'0 0.0
2015-Mar-17 09:31N 51°15' E 004°14'0 0.0
2015-Mar-17 08:31N 51°15' E 004°14'0 0.0
2015-Mar-17 07:25N 51°15' E 004°14'0 0.0
2015-Mar-17 06:31N 51°15' E 004°14'0 0.0
2015-Mar-17 05:28N 51°15' E 004°14'0 0.0
2015-Mar-17 04:28N 51°15' E 004°14'0 0.0
2015-Mar-17 03:31N 51°15' E 004°14'0 0.0
2015-Mar-17 02:31N 51°15' E 004°14'0 0.0
2015-Mar-17 01:31N 51°15' E 004°14'0 0.0
2015-Mar-17 00:31N 51°15' E 004°14'0 0.0
2015-Mar-16 23:31N 51°15' E 004°14'0 0.0
2015-Mar-16 22:31N 51°15' E 004°14'0 0.0
2015-Mar-16 21:31N 51°15' E 004°14'0 0.0
2015-Mar-16 20:31N 51°15' E 004°14'0 0.0
2015-Mar-16 19:31N 51°15' E 004°14'0 0.0
2015-Mar-16 18:31N 51°15' E 004°14'0 0.0
2015-Mar-16 17:31N 51°15' E 004°14'0 0.0
2015-Mar-16 16:31N 51°15' E 004°14'0 0.0
2015-Mar-16 15:31N 51°15' E 004°14'0 0.0
2015-Mar-16 14:28N 51°15' E 004°14'0 0.0
2015-Mar-16 13:28N 51°15' E 004°14'0 0.0
2015-Mar-16 12:25N 51°15' E 004°14'0 0.0
2015-Mar-16 11:33N 51°15' E 004°14'0 0.0
2015-Mar-16 10:33N 51°15' E 004°14'0 0.0
2015-Mar-16 09:33N 51°15' E 004°14'0 0.4
2015-Mar-16 08:33N 51°16' E 004°14'2 1.7
2015-Mar-16 07:33N 51°16' E 004°17'4 3.6
2015-Mar-16 06:33N 51°19' E 004°16'10 9.6
2015-Mar-16 05:33N 51°23' E 004°02'9 9.2
2015-Mar-16 04:34N 51°21' E 003°48'1010.3
2015-Mar-16 03:33N 51°25' E 003°33'1110.6
2015-Mar-16 02:28N 51°25' E 003°15'1010.6
2015-Mar-16 01:33N 51°23' E 002°59'1110.4
2015-Mar-16 00:29N 51°22' E 002°41'3 3.7
2015-Mar-15 23:33N 51°22' E 002°36'7 6.8
2015-Mar-15 22:33N 51°21' E 002°25'10 9.1
2015-Mar-15 21:30N 51°15' E 002°12'1212.7
2015-Mar-15 20:33N 51°10' E 001°55'  

Dump ship's entire track history